Time;durP1;ratioP1;P1;durP2;ratioP2;P2;SDS_P1;SDS_P2;PMS_P1;PMS_P2;Temp;Humidity;BMP_temperature;BMP_pressure;BME280_temperature;BME280_humidity;BME280_pressure;Samples;Min_cycle;Max_cycle;Signal;HPM_P1;HPM_P2
2023/04/26 00:02:58;;;;;;;9.77;3.20;;;;;;;4.02;59.48;100095.88;10404121;28;20041;-60
2023/04/26 00:08:01;;;;;;;6.40;3.10;;;;;;;3.96;59.60;100106.44;10391368;28;20520;-60
2023/04/26 00:13:03;;;;;;;8.15;3.25;;;;;;;3.92;59.59;100112.59;10393364;28;20132;-60
2023/04/26 00:18:05;;;;;;;7.47;3.03;;;;;;;3.77;59.78;100103.50;10390506;28;20266;-60
2023/04/26 00:23:09;;;;;;;11.13;3.00;;;;;;;3.73;59.94;100111.38;10393409;28;20048;-60
2023/04/26 00:28:11;;;;;;;8.63;3.40;;;;;;;3.74;59.98;100116.50;10391490;28;20038;-60
2023/04/26 00:33:12;;;;;;;7.68;2.92;;;;;;;3.64;60.14;100124.59;10390720;28;20042;-60
2023/04/26 00:38:14;;;;;;;5.32;3.03;;;;;;;3.64;60.02;100120.25;10389198;28;20071;-59
2023/04/26 00:43:16;;;;;;;8.00;3.10;;;;;;;3.62;60.44;100126.38;10389384;28;20190;-59
2023/04/26 00:48:19;;;;;;;7.97;3.28;;;;;;;3.60;60.27;100117.81;10331390;28;1143514;-60
2023/04/26 00:53:22;;;;;;;8.77;3.05;;;;;;;3.55;60.30;100114.50;10374527;28;20188;-60
2023/04/26 00:58:25;;;;;;;8.05;2.88;;;;;;;3.44;60.46;100112.22;10391993;28;20108;-59
2023/04/26 01:03:27;;;;;;;8.52;3.30;;;;;;;3.43;60.60;100107.09;10374997;28;20135;-59
2023/04/26 01:08:29;;;;;;;8.40;3.63;;;;;;;3.34;60.50;100107.34;10392639;28;20041;-61
2023/04/26 01:13:31;;;;;;;9.88;3.50;;;;;;;3.25;60.52;100099.84;10392624;28;20497;-59
2023/04/26 01:18:34;;;;;;;7.78;3.25;;;;;;;3.23;60.71;100106.81;10391127;28;20053;-59
2023/04/26 01:23:35;;;;;;;7.63;3.20;;;;;;;3.12;60.80;100104.50;10368399;28;20049;-59
2023/04/26 01:28:38;;;;;;;11.80;3.35;;;;;;;3.01;60.84;100107.34;10370337;28;20033;-59
2023/04/26 01:33:40;;;;;;;6.53;3.65;;;;;;;2.82;60.83;100116.50;10373952;28;20040;-60
2023/04/26 01:38:42;;;;;;;6.82;3.30;;;;;;;2.76;60.82;100126.97;10375576;28;20049;-60
2023/04/26 01:43:44;;;;;;;9.20;3.13;;;;;;;2.80;60.87;100127.75;10390090;28;20148;-60
2023/04/26 01:48:46;;;;;;;8.30;3.30;;;;;;;2.73;61.33;100126.19;10367341;28;20059;-60
2023/04/26 01:53:48;;;;;;;10.75;3.60;;;;;;;2.74;61.31;100122.72;10385281;28;20573;-60
2023/04/26 01:58:49;;;;;;;7.75;3.58;;;;;;;2.62;61.10;100117.88;10387371;28;20454;-60
2023/04/26 02:03:52;;;;;;;7.15;2.90;;;;;;;2.60;61.33;100123.03;10390609;28;20049;-60
2023/04/26 02:08:54;;;;;;;9.07;3.40;;;;;;;2.62;61.34;100120.44;10389041;28;20048;-60
2023/04/26 02:13:56;;;;;;;7.47;3.38;;;;;;;2.48;61.55;100110.44;10394017;28;20137;-60
2023/04/26 02:18:58;;;;;;;6.88;3.00;;;;;;;2.56;61.45;100113.69;10391199;28;20494;-60
2023/04/26 02:24:00;;;;;;;7.95;3.45;;;;;;;2.54;61.39;100117.22;10394573;28;20818;-60
2023/04/26 02:29:05;;;;;;;9.82;3.38;;;;;;;2.51;61.21;100114.69;10404393;28;20502;-60
2023/04/26 02:34:07;;;;;;;9.10;3.67;;;;;;;2.41;61.44;100119.22;10393463;28;20182;-60
2023/04/26 02:39:10;;;;;;;7.15;3.20;;;;;;;2.42;61.52;100120.91;10388196;28;20390;-60
2023/04/26 02:44:12;;;;;;;10.45;3.35;;;;;;;2.41;61.41;100121.81;10375072;28;20049;-60
2023/04/26 02:49:15;;;;;;;8.07;3.20;;;;;;;2.38;61.49;100123.63;10372174;28;20083;-60
2023/04/26 02:54:17;;;;;;;8.98;3.25;;;;;;;2.31;61.45;100127.22;10383422;28;20131;-61
2023/04/26 02:59:19;;;;;;;6.05;3.33;;;;;;;2.30;61.39;100128.94;10372176;28;20585;-60
2023/04/26 03:04:21;;;;;;;7.20;3.67;;;;;;;2.14;61.54;100130.19;10373322;28;20073;-61
2023/04/26 03:09:23;;;;;;;11.40;3.85;;;;;;;2.07;61.61;100121.72;10380311;28;20060;-60
2023/04/26 03:14:26;;;;;;;10.45;4.60;;;;;;;1.95;61.71;100129.72;10366598;28;20060;-60
2023/04/26 03:19:29;;;;;;;9.45;3.70;;;;;;;1.87;62.05;100128.22;10378077;28;20046;-61
2023/04/26 03:24:31;;;;;;;8.52;3.95;;;;;;;1.86;62.00;100123.94;10379169;28;20042;-60
2023/04/26 03:29:33;;;;;;;8.85;4.25;;;;;;;1.79;61.76;100128.38;10365688;28;20103;-60
2023/04/26 03:34:35;;;;;;;8.30;3.92;;;;;;;1.77;61.91;100122.38;10382939;28;20293;-60
2023/04/26 03:39:37;;;;;;;10.52;4.25;;;;;;;1.69;62.51;100123.44;10364446;28;20761;-60
2023/04/26 03:44:39;;;;;;;7.68;3.83;;;;;;;1.60;62.29;100121.91;10371192;28;20502;-61
2023/04/26 03:49:41;;;;;;;9.65;4.32;;;;;;;1.57;62.30;100121.09;10388018;28;20045;-60
2023/04/26 03:54:43;;;;;;;11.23;4.20;;;;;;;1.62;62.28;100121.88;10390627;28;20042;-61
2023/04/26 03:59:45;;;;;;;9.30;4.18;;;;;;;1.63;62.25;100118.41;10371150;28;20449;-60
2023/04/26 04:04:47;;;;;;;9.77;4.10;;;;;;;1.60;62.31;100115.91;10388244;28;20052;-60
2023/04/26 04:09:50;;;;;;;6.43;4.10;;;;;;;1.66;62.41;100120.94;10406122;28;20560;-61
2023/04/26 04:14:53;;;;;;;9.20;4.63;;;;;;;1.69;62.23;100116.53;10417650;28;20573;-61
2023/04/26 04:19:57;;;;;;;9.70;4.53;;;;;;;1.66;62.15;100126.94;10386787;28;20049;-61
2023/04/26 04:24:59;;;;;;;8.85;4.25;;;;;;;1.71;61.95;100129.41;10415023;28;20148;-61
2023/04/26 04:30:02;;;;;;;8.40;4.20;;;;;;;1.84;61.76;100141.16;10386137;28;20049;-61
2023/04/26 04:35:06;;;;;;;14.45;6.70;;;;;;;1.91;61.41;100143.56;10426104;28;20510;-61
2023/04/26 04:40:09;;;;;;;10.57;6.18;;;;;;;1.96;61.32;100146.06;10392888;28;20123;-61
2023/04/26 04:45:14;;;;;;;12.35;5.07;;;;;;;1.86;61.27;100145.41;10446404;28;20132;-60
2023/04/26 04:50:16;;;;;;;8.15;4.53;;;;;;;2.56;60.64;100157.56;10425743;28;20068;-61
2023/04/26 04:55:18;;;;;;;9.45;4.80;;;;;;;2.96;59.50;100160.91;10404409;28;20033;-61
2023/04/26 05:00:20;;;;;;;10.02;5.07;;;;;;;3.30;59.06;100160.84;10406132;28;21060;-61
2023/04/26 05:05:34;;;;;;;11.43;5.95;;;;;;;3.99;57.30;100164.97;10412302;28;20570;-60
2023/04/26 05:10:37;;;;;;;8.73;4.53;;;;;;;3.85;57.16;100171.41;10405999;28;20049;-61
2023/04/26 05:15:39;;;;;;;11.95;4.40;;;;;;;3.67;57.54;100176.22;10371986;28;20073;-60
2023/04/26 05:20:41;;;;;;;9.95;4.45;;;;;;;3.70;57.58;100170.97;10370812;28;20057;-60
2023/04/26 05:25:43;;;;;;;9.10;4.53;;;;;;;3.74;57.43;100177.75;10392900;28;20046;-61
2023/04/26 05:31:04;;;;;;;11.18;4.60;;;;;;;3.92;57.34;100186.75;10388691;28;20053;-60
2023/04/26 05:36:41;;;;;;;7.47;4.20;;;;;;;3.89;57.47;100187.69;10353023;28;20052;-60
2023/04/26 05:41:43;;;;;;;10.27;4.55;;;;;;;3.77;57.50;100190.59;10425501;28;20055;-60
2023/04/26 05:46:45;;;;;;;8.18;4.30;;;;;;;3.52;57.88;100190.41;10393779;28;20048;-60
2023/04/26 05:51:47;;;;;;;8.07;4.50;;;;;;;3.54;58.30;100198.97;10350149;28;20053;-61
2023/04/26 05:56:49;;;;;;;8.65;4.22;;;;;;;3.71;58.13;100203.69;10345218;28;20076;-60
2023/04/26 06:01:51;;;;;;;11.70;4.65;;;;;;;3.85;57.67;100201.59;10347212;28;20281;-60
2023/04/26 06:06:53;;;;;;;9.80;4.63;;;;;;;3.78;57.83;100210.41;10401469;28;20583;-60
2023/04/26 06:11:55;;;;;;;25.98;9.57;;;;;;;4.01;57.86;100215.81;10377720;28;20050;-60
2023/04/26 06:16:58;;;;;;;21.00;8.40;;;;;;;4.24;57.56;100212.56;10381172;28;20042;-61
2023/04/26 06:22:01;;;;;;;12.88;5.13;;;;;;;4.41;57.37;100216.31;10344468;28;20041;-61
2023/04/26 06:27:03;;;;;;;12.48;5.78;;;;;;;4.69;57.28;100211.16;10345597;28;20164;-61
2023/04/26 06:32:05;;;;;;;10.10;4.72;;;;;;;5.00;57.08;100208.44;10362339;28;20405;-61
2023/04/26 06:37:07;;;;;;;8.98;4.95;;;;;;;5.31;56.54;100204.75;10349896;28;20041;-61
2023/04/26 06:42:12;;;;;;;11.68;5.63;;;;;;;5.58;55.90;100200.38;10348521;28;20052;-61
2023/04/26 06:47:34;;;;;;;14.77;6.93;;;;;;;5.60;55.64;100195.97;10352771;28;20182;-60
2023/04/26 06:52:36;;;;;;;11.52;5.63;;;;;;;6.01;55.47;100202.25;10388830;28;20053;-61
2023/04/26 06:57:38;;;;;;;14.75;6.40;;;;;;;6.04;55.04;100205.59;10388822;28;20041;-61
2023/04/26 07:02:40;;;;;;;10.68;5.10;;;;;;;6.52;54.62;100212.47;10357072;28;20034;-61
2023/04/26 07:07:43;;;;;;;10.57;5.15;;;;;;;6.89;53.83;100221.38;10387113;28;20056;-61
2023/04/26 07:12:44;;;;;;;9.88;4.55;;;;;;;7.42;52.90;100211.38;10390401;28;20132;-61
2023/04/26 07:17:46;;;;;;;10.90;4.40;;;;;;;7.71;51.51;100203.13;10394327;28;20163;-61
2023/04/26 07:22:49;;;;;;;13.63;4.00;;;;;;;7.99;50.49;100197.56;10396384;28;21348;-61
2023/04/26 07:27:51;;;;;;;11.70;3.72;;;;;;;8.07;50.16;100197.19;10394180;28;20292;-61
2023/04/26 07:32:53;;;;;;;10.40;3.65;;;;;;;8.58;49.17;100189.63;10391040;28;20053;-61
2023/04/26 07:37:55;;;;;;;14.50;3.92;;;;;;;9.74;47.46;100177.69;10398063;28;20421;-61
2023/04/26 07:42:57;;;;;;;12.48;3.65;;;;;;;10.99;44.13;100176.78;10375615;28;20400;-61
2023/04/26 07:47:59;;;;;;;14.38;3.55;;;;;;;12.07;41.99;100173.75;10391196;28;20126;-61
2023/04/26 07:53:01;;;;;;;12.43;3.80;;;;;;;12.34;41.36;100168.63;10391562;28;20087;-61
2023/04/26 07:58:03;;;;;;;9.70;3.67;;;;;;;12.11;40.32;100172.63;10389081;28;20048;-61
2023/04/26 08:03:05;;;;;;;11.00;4.05;;;;;;;11.78;40.58;100172.97;10389834;28;20404;-61
2023/04/26 08:08:07;;;;;;;8.82;3.88;;;;;;;12.83;39.49;100162.75;10391904;28;20037;-61
2023/04/26 08:13:09;;;;;;;10.25;3.65;;;;;;;12.95;38.90;100167.19;10390869;28;20051;-61
2023/04/26 08:18:12;;;;;;;10.00;3.38;;;;;;;12.23;39.58;100171.06;10390832;28;20045;-61
2023/04/26 08:23:13;;;;;;;12.10;4.63;;;;;;;11.92;39.32;100172.09;10389906;28;20389;-61
2023/04/26 08:28:15;;;;;;;12.13;4.10;;;;;;;11.17;39.91;100167.88;10399098;28;20160;-62
2023/04/26 08:33:17;;;;;;;14.32;4.10;;;;;;;10.71;40.86;100173.19;10403433;28;20076;-63
2023/04/26 08:38:21;;;;;;;11.10;3.47;;;;;;;11.73;39.90;100163.69;10404247;28;20512;-61
2023/04/26 08:43:23;;;;;;;11.95;4.15;;;;;;;12.58;38.67;100160.03;10396070;28;20513;-61
2023/04/26 08:48:27;;;;;;;9.63;3.65;;;;;;;12.36;39.36;100159.72;10394150;28;20331;-61
2023/04/26 08:53:30;;;;;;;13.30;3.85;;;;;;;10.82;39.58;100166.44;10385678;28;20045;-61
2023/04/26 08:58:32;;;;;;;10.77;3.95;;;;;;;10.74;40.86;100176.50;10383825;28;20151;-61
2023/04/26 09:03:34;;;;;;;9.07;3.55;;;;;;;10.41;39.41;100168.78;10386042;28;20046;-61
2023/04/26 09:08:40;;;;;;;9.70;3.42;;;;;;;10.42;39.61;100166.97;10385852;28;20123;-60
2023/04/26 09:13:42;;;;;;;11.23;3.38;;;;;;;10.44;39.40;100165.97;10372362;28;20053;-61
2023/04/26 09:18:51;;;;;;;9.45;3.30;;;;;;;10.94;37.34;100154.44;10387862;28;20323;-60
2023/04/26 09:23:58;;;;;;;10.25;3.25;;;;;;;11.83;37.02;100149.06;10386488;28;20076;-61
2023/04/26 09:29:17;;;;;;;8.88;3.22;;;;;;;12.52;35.77;100135.97;10389274;28;20505;-61
2023/04/26 09:34:21;;;;;;;8.48;2.92;;;;;;;12.71;35.81;100126.81;10388672;28;20041;-61
2023/04/26 09:39:32;;;;;;;13.43;3.25;;;;;;;13.57;33.43;100126.25;10390532;28;20053;-61
2023/04/26 09:44:37;;;;;;;10.43;3.00;;;;;;;12.14;35.87;100134.00;10383538;28;20049;-61
2023/04/26 09:49:45;;;;;;;9.60;2.63;;;;;;;11.25;35.27;100136.88;10388342;28;20319;-61
2023/04/26 09:54:48;;;;;;;8.23;2.70;;;;;;;11.10;37.36;100134.31;10385880;28;20049;-61
2023/04/26 09:59:51;;;;;;;6.53;2.60;;;;;;;11.30;36.57;100134.84;10388792;28;20044;-60
2023/04/26 10:05:00;;;;;;;10.32;2.88;;;;;;;11.70;36.84;100129.81;10383990;28;20105;-61
2023/04/26 10:10:04;;;;;;;8.70;2.40;;;;;;;12.46;35.69;100120.63;10369726;28;20140;-62
2023/04/26 10:15:08;;;;;;;8.95;2.55;;;;;;;12.19;35.34;100122.38;10388407;28;20128;-62
2023/04/26 10:20:13;;;;;;;9.07;2.60;;;;;;;12.46;34.56;100112.75;10388683;28;20049;-62
2023/04/26 10:25:15;;;;;;;9.32;2.50;;;;;;;12.27;34.35;100115.69;10392265;28;20445;-62
2023/04/26 10:30:19;;;;;;;9.57;2.65;;;;;;;12.36;33.47;100104.63;10397944;28;20242;-62
2023/04/26 10:35:31;;;;;;;9.38;2.63;;;;;;;12.20;33.83;100101.28;10393282;28;20140;-62
2023/04/26 10:40:38;;;;;;;8.23;2.83;;;;;;;12.77;32.14;100097.53;10387695;28;20155;-62
2023/04/26 10:45:41;;;;;;;8.30;2.50;;;;;;;12.93;33.15;100095.59;10394662;28;20251;-62
2023/04/26 10:51:01;;;;;;;9.98;2.60;;;;;;;12.77;32.17;100087.03;10390642;28;20065;-61
2023/04/26 10:56:03;;;;;;;9.70;2.70;;;;;;;12.87;33.32;100080.25;10391626;28;20048;-62
2023/04/26 11:01:16;;;;;;;7.63;2.17;;;;;;;12.95;32.11;100072.69;10395024;28;20056;-62
2023/04/26 11:06:18;;;;;;;7.03;2.53;;;;;;;12.75;33.19;100082.84;10400712;28;20128;-62
2023/04/26 11:11:25;;;;;;;8.10;2.35;;;;;;;12.65;32.36;100074.75;10397758;28;20469;-62
2023/04/26 11:16:27;;;;;;;8.38;2.30;;;;;;;12.74;33.13;100071.50;10381906;28;20052;-61
2023/04/26 11:21:31;;;;;;;5.68;2.17;;;;;;;12.98;32.36;100065.56;10391348;28;20050;-62
2023/04/26 11:26:34;;;;;;;6.72;2.10;;;;;;;13.13;31.94;100057.47;10383313;28;20884;-61
2023/04/26 11:31:36;;;;;;;10.25;2.65;;;;;;;13.69;31.89;100061.47;10393762;28;20269;-62
2023/04/26 11:36:38;;;;;;;8.15;2.38;;;;;;;14.31;30.76;100049.91;10375754;28;20135;-62
2023/04/26 11:41:40;;;;;;;6.55;2.58;;;;;;;14.55;29.75;100050.75;10392930;28;20595;-62
2023/04/26 11:46:42;;;;;;;6.00;2.30;;;;;;;14.50;29.36;100050.28;10394293;28;20076;-62
2023/04/26 11:51:47;;;;;;;6.65;2.15;;;;;;;14.66;28.94;100041.22;10393180;28;20428;-62
2023/04/26 11:56:49;;;;;;;6.03;2.17;;;;;;;14.60;29.24;100029.34;10393660;28;20119;-62
2023/04/26 12:01:52;;;;;;;10.77;2.20;;;;;;;14.55;29.09;100032.31;10398139;28;20041;-62
2023/04/26 12:06:55;;;;;;;6.07;2.17;;;;;;;14.78;28.29;100029.78;10395282;28;20045;-62
2023/04/26 12:11:58;;;;;;;6.72;2.30;;;;;;;14.57;28.14;100032.22;10394346;28;20115;-62
2023/04/26 12:17:01;;;;;;;4.13;2.00;;;;;;;14.67;28.44;100029.75;10393612;28;20317;-62
2023/04/26 12:22:05;;;;;;;8.00;2.60;;;;;;;14.79;28.33;100031.44;10395434;28;20068;-62
2023/04/26 12:27:07;;;;;;;8.10;2.30;;;;;;;14.57;27.29;100030.41;10388821;28;20041;-62
2023/04/26 12:32:09;;;;;;;9.70;2.63;;;;;;;14.70;27.06;100021.59;10399914;28;20634;-62
2023/04/26 12:37:11;;;;;;;9.20;2.40;;;;;;;14.51;28.55;100017.72;10388950;28;20523;-62
2023/04/26 12:42:13;;;;;;;5.72;2.20;;;;;;;14.65;29.54;100019.34;10391887;28;20064;-61
2023/04/26 12:47:14;;;;;;;6.18;2.10;;;;;;;14.54;28.06;100014.88;10393402;28;20640;-61
2023/04/26 12:52:16;;;;;;;7.93;2.17;;;;;;;14.45;31.06;100015.50;10394679;28;20447;-62
2023/04/26 12:57:20;;;;;;;8.25;2.30;;;;;;;14.37;28.79;100009.97;10383195;28;20045;-62
2023/04/26 13:02:22;;;;;;;8.82;2.20;;;;;;;13.86;28.82;100005.88;10407070;28;20056;-62
2023/04/26 13:07:24;;;;;;;6.47;2.15;;;;;;;14.06;29.56;100007.94;10382861;28;20477;-62
2023/04/26 13:12:27;;;;;;;6.63;2.20;;;;;;;14.30;28.56;100016.66;10399831;28;20073;-61
2023/04/26 13:17:30;;;;;;;7.15;2.20;;;;;;;14.59;28.66;100015.34;10388251;28;20398;-61
2023/04/26 13:22:33;;;;;;;6.75;2.10;;;;;;;14.27;27.13;100021.28;10399603;28;20049;-61
2023/04/26 13:27:35;;;;;;;6.45;2.20;;;;;;;14.29;28.18;100014.13;10405545;28;20095;-62
2023/04/26 13:32:38;;;;;;;8.18;2.22;;;;;;;14.23;28.16;100010.16;10402575;28;20417;-61
2023/04/26 13:37:41;;;;;;;6.45;2.20;;;;;;;14.50;27.44;100013.44;10396059;28;20095;-62
2023/04/26 13:42:42;;;;;;;8.45;2.97;;;;;;;14.36;28.18;100005.69;10396232;28;20045;-62
2023/04/26 13:47:44;;;;;;;7.88;2.58;;;;;;;14.06;27.61;100007.94;10393777;28;20049;-62
2023/04/26 13:52:49;;;;;;;5.47;2.30;;;;;;;13.88;27.81;100005.81;10403185;28;20072;-61
2023/04/26 13:57:51;;;;;;;7.35;2.50;;;;;;;14.10;27.63;99993.63;10387673;28;20198;-62
2023/04/26 14:02:53;;;;;;;9.98;2.22;;;;;;;14.71;27.41;99981.19;10397959;28;20505;-62
2023/04/26 14:07:56;;;;;;;8.60;2.30;;;;;;;14.77;26.59;99986.81;10384285;28;20041;-63
2023/04/26 14:12:57;;;;;;;7.45;2.33;;;;;;;14.79;27.03;99982.28;10389158;28;20378;-62
2023/04/26 14:17:59;;;;;;;8.07;2.95;;;;;;;14.91;27.09;99964.69;10397313;28;20053;-62
2023/04/26 14:23:01;;;;;;;9.32;2.38;;;;;;;14.46;26.93;99961.09;10392187;28;20560;-62
2023/04/26 14:28:03;;;;;;;8.48;2.60;;;;;;;14.27;27.59;99956.38;10392074;28;20041;-62
2023/04/26 14:33:05;;;;;;;7.35;2.28;;;;;;;14.39;27.82;99959.91;10397314;28;20172;-62
2023/04/26 14:38:06;;;;;;;8.18;3.30;;;;;;;14.47;28.06;99962.78;10385603;28;20049;-60
2023/04/26 14:43:08;;;;;;;6.07;2.28;;;;;;;14.14;28.06;99963.50;10400722;28;20132;-63
2023/04/26 14:48:11;;;;;;;8.38;2.40;;;;;;;13.84;28.69;99963.09;10388428;28;20412;-62
2023/04/26 14:53:13;;;;;;;6.55;2.53;;;;;;;13.86;28.71;99961.19;10383567;28;20500;-62
2023/04/26 14:58:16;;;;;;;15.10;2.83;;;;;;;13.61;28.19;99966.56;10385310;28;20057;-62
2023/04/26 15:03:26;;;;;;;6.85;2.42;;;;;;;13.43;28.54;99963.44;10366897;28;20048;-61
2023/04/26 15:08:29;;;;;;;9.70;2.60;;;;;;;13.26;30.27;99965.56;10384314;28;20060;-63
2023/04/26 15:13:31;;;;;;;8.27;3.13;;;;;;;13.03;29.23;99961.09;10388601;28;20041;-62
2023/04/26 15:18:33;;;;;;;8.10;2.70;;;;;;;13.23;29.37;99961.34;10375013;28;20566;-62
2023/04/26 15:23:37;;;;;;;9.98;2.65;;;;;;;13.56;29.35;99947.66;10374730;28;20507;-62
2023/04/26 15:28:43;;;;;;;7.78;3.10;;;;;;;13.99;28.30;99954.09;10386700;28;20103;-62
2023/04/26 15:33:45;;;;;;;7.32;2.88;;;;;;;13.84;28.35;99962.28;10389962;28;20580;-62
2023/04/26 15:38:48;;;;;;;6.93;2.92;;;;;;;14.04;28.79;99948.50;10389112;28;20048;-62
2023/04/26 15:43:54;;;;;;;6.57;2.60;;;;;;;14.53;28.49;99944.75;10391697;28;20061;-62
2023/04/26 15:48:56;;;;;;;8.60;2.75;;;;;;;14.43;27.63;99945.56;10391876;28;20132;-63
2023/04/26 15:53:58;;;;;;;7.88;2.80;;;;;;;13.97;27.21;99936.75;10397972;28;20071;-61
2023/04/26 15:58:59;;;;;;;6.88;2.33;;;;;;;13.85;26.72;99942.91;10392749;28;20046;-61
2023/04/26 16:04:01;;;;;;;5.72;2.35;;;;;;;14.03;26.31;99937.16;10403209;28;20531;-61
2023/04/26 16:09:07;;;;;;;5.80;2.42;;;;;;;14.09;26.65;99939.31;10377765;28;20048;-61
2023/04/26 16:14:24;;;;;;;6.60;2.20;;;;;;;14.23;27.07;99941.78;10394280;28;20285;-61
2023/04/26 16:19:26;;;;;;;6.90;2.45;;;;;;;14.33;26.91;99937.50;10390711;28;20041;-61
2023/04/26 16:24:28;;;;;;;7.50;2.42;;;;;;;14.27;27.16;99930.06;10391422;28;20056;-61
2023/04/26 16:29:30;;;;;;;7.50;2.50;;;;;;;14.02;27.67;99924.97;10405243;28;20132;-61
2023/04/26 16:34:31;;;;;;;7.72;2.50;;;;;;;14.19;27.70;99928.94;10390639;28;20308;-61
2023/04/26 16:39:34;;;;;;;8.30;2.97;;;;;;;14.45;27.52;99922.59;10389107;28;20049;-61
2023/04/26 16:44:36;;;;;;;7.43;3.00;;;;;;;14.46;27.58;99919.84;10392531;28;20049;-61
2023/04/26 16:49:38;;;;;;;7.80;2.38;;;;;;;14.37;27.95;99915.25;10378861;28;20228;-60
2023/04/26 16:54:40;;;;;;;7.80;2.67;;;;;;;13.81;28.41;99916.03;10388347;28;20469;-60
2023/04/26 16:59:42;;;;;;;6.78;2.53;;;;;;;13.81;29.01;99916.03;10387610;28;20056;-60
2023/04/26 17:04:44;;;;;;;7.78;2.50;;;;;;;14.04;29.28;99922.22;10371949;28;20456;-61
2023/04/26 17:09:46;;;;;;;8.43;2.40;;;;;;;14.02;29.16;99926.75;10382780;28;20120;-61
2023/04/26 17:14:48;;;;;;;7.63;2.90;;;;;;;13.81;29.17;99925.69;10395540;28;20041;-61
2023/04/26 17:19:50;;;;;;;8.48;2.80;;;;;;;13.46;29.45;99934.34;10388133;28;20132;-61
2023/04/26 17:24:51;;;;;;;8.57;2.72;;;;;;;13.10;30.56;99939.53;10392491;28;20045;-61
2023/04/26 17:29:53;;;;;;;8.15;2.60;;;;;;;12.80;31.13;99937.22;10405519;28;20123;-61
2023/04/26 17:39:55;;;;;;;;;;;;;;;11.89;31.51;99941.66;10539402;27;20186;-62
2023/04/26 17:44:57;;;;;;;6.53;2.53;;;;;;;12.19;32.07;99949.31;10540936;28;19943;-62
2023/04/26 17:49:59;;;;;;;8.90;2.72;;;;;;;12.05;31.36;99950.22;10526315;28;20279;-61
2023/04/26 17:55:01;;;;;;;5.80;2.55;;;;;;;11.92;32.01;99959.81;10531967;28;20135;-62
2023/04/26 18:00:05;;;;;;;10.48;3.00;;;;;;;11.61;32.18;99962.72;10524533;28;20050;-61
2023/04/26 18:05:08;;;;;;;7.00;2.35;;;;;;;11.39;32.86;99975.47;10537605;28;20063;-61
2023/04/26 18:10:10;;;;;;;8.70;2.80;;;;;;;11.07;32.45;99982.72;10531497;28;20415;-61
2023/04/26 18:15:12;;;;;;;5.43;2.50;;;;;;;10.82;33.33;99975.47;10535940;28;20583;-61
2023/04/26 18:20:15;;;;;;;8.27;2.63;;;;;;;10.75;33.20;99987.22;10532927;28;20347;-61
2023/04/26 18:25:17;;;;;;;7.45;2.40;;;;;;;10.48;33.31;99999.31;10537333;28;20043;-61
2023/04/26 18:30:19;;;;;;;8.10;2.75;;;;;;;10.34;33.92;99994.03;10512817;28;20046;-61
2023/04/26 18:35:20;;;;;;;6.72;2.63;;;;;;;10.17;33.87;100005.47;10534862;28;20140;-61
2023/04/26 18:40:23;;;;;;;9.98;3.13;;;;;;;10.07;34.38;100013.91;10534563;28;20055;-62
2023/04/26 18:45:25;;;;;;;10.80;3.63;;;;;;;9.90;35.48;100008.78;10537650;28;20051;-61
2023/04/26 18:50:26;;;;;;;8.57;3.47;;;;;;;9.84;36.41;100016.94;10511512;28;20032;-61
2023/04/26 18:55:28;;;;;;;5.78;2.92;;;;;;;9.73;37.25;100022.75;10499680;28;20625;-61
2023/04/26 19:00:31;;;;;;;8.02;3.47;;;;;;;9.62;37.75;100032.94;10501689;28;20043;-61
2023/04/26 19:05:33;;;;;;;7.55;3.10;;;;;;;9.55;38.29;100035.03;10508743;28;20131;-61
2023/04/26 19:10:35;;;;;;;6.72;3.15;;;;;;;9.44;39.26;100045.19;10484486;28;20511;-61
2023/04/26 19:15:37;;;;;;;6.90;3.10;;;;;;;9.33;40.05;100052.75;10508198;28;20063;-61
2023/04/26 19:20:39;;;;;;;8.82;3.38;;;;;;;9.21;40.63;100063.00;10523211;28;20040;-61
2023/04/26 19:25:40;;;;;;;9.75;2.90;;;;;;;9.14;40.81;100062.47;10505990;28;20048;-62
2023/04/26 19:30:42;;;;;;;8.98;2.70;;;;;;;9.05;41.27;100069.91;10507383;28;20511;-62
2023/04/26 19:35:44;;;;;;;7.00;2.97;;;;;;;8.90;42.16;100066.31;10509512;28;20054;-62
2023/04/26 19:40:46;;;;;;;10.57;3.17;;;;;;;8.81;42.45;100064.19;10506865;28;20337;-61
2023/04/26 19:45:48;;;;;;;7.32;3.22;;;;;;;8.61;43.47;100069.53;10508296;28;20078;-62
2023/04/26 19:50:49;;;;;;;9.82;3.20;;;;;;;8.38;44.08;100068.09;10510465;28;20040;-61
2023/04/26 19:55:51;;;;;;;7.63;3.08;;;;;;;8.30;44.43;100067.63;10493238;28;20466;-61
2023/04/26 20:00:53;;;;;;;11.43;3.20;;;;;;;8.15;44.71;100067.47;10489805;28;20135;-61
2023/04/26 20:05:55;;;;;;;6.47;2.90;;;;;;;7.89;45.41;100079.09;10502115;28;20055;-61
2023/04/26 20:11:02;;;;;;;7.22;2.97;;;;;;;7.67;46.35;100078.41;10508154;28;20040;-61
2023/04/26 20:16:05;;;;;;;9.23;3.20;;;;;;;7.50;46.28;100088.72;10504726;28;20676;-61
2023/04/26 20:21:08;;;;;;;8.20;2.90;;;;;;;7.47;46.47;100092.28;10498838;28;20119;-61
2023/04/26 20:26:10;;;;;;;5.82;2.88;;;;;;;7.46;46.41;100098.44;10500924;28;20048;-61
2023/04/26 20:31:12;;;;;;;10.50;3.30;;;;;;;7.42;46.69;100096.03;10498941;28;20399;-61
2023/04/26 20:36:14;;;;;;;11.18;4.03;;;;;;;7.19;47.51;100095.28;10483020;28;20063;-61
2023/04/26 20:41:15;;;;;;;10.23;3.78;;;;;;;7.05;47.80;100095.03;10466464;28;20143;-61
2023/04/26 20:46:17;;;;;;;7.90;3.63;;;;;;;7.08;47.64;100096.66;10487029;28;20048;-60
2023/04/26 20:51:19;;;;;;;9.60;3.50;;;;;;;7.02;48.24;100097.75;10473612;28;20040;-60
2023/04/26 20:56:21;;;;;;;8.48;3.53;;;;;;;7.05;48.25;100104.56;10506123;28;20044;-60
2023/04/26 21:01:23;;;;;;;9.45;4.05;;;;;;;6.96;48.58;100117.94;10508294;28;20131;-61
2023/04/26 21:06:26;;;;;;;10.27;3.90;;;;;;;6.85;49.10;100114.97;10507109;28;20188;-61
2023/04/26 21:11:27;;;;;;;7.57;4.10;;;;;;;6.73;49.35;100111.13;10506686;28;20079;-60
2023/04/26 21:16:29;;;;;;;9.43;4.35;;;;;;;6.66;49.42;100114.03;10521377;27;20424;-60
2023/04/26 21:21:31;;;;;;;5.63;3.88;;;;;;;6.60;49.56;100112.53;10508278;28;20055;-60
2023/04/26 21:26:33;;;;;;;7.13;3.80;;;;;;;6.53;49.86;100110.25;10505799;28;20490;-60
2023/04/26 21:31:35;;;;;;;8.07;4.10;;;;;;;6.40;50.33;100114.22;10505940;28;20048;-60
2023/04/26 21:36:37;;;;;;;15.88;4.53;;;;;;;6.15;51.06;100122.97;10506177;28;20052;-61
2023/04/26 21:41:39;;;;;;;9.48;4.00;;;;;;;6.30;50.77;100118.94;10506980;28;20226;-60
2023/04/26 21:46:40;;;;;;;8.70;4.20;;;;;;;6.40;50.73;100122.03;10507344;28;20048;-60
2023/04/26 21:51:42;;;;;;;7.30;4.28;;;;;;;6.34;50.95;100123.97;10501799;28;20322;-61
2023/04/26 21:56:44;;;;;;;12.10;4.40;;;;;;;6.28;51.25;100129.41;10503136;28;20101;-61
2023/04/26 22:01:46;;;;;;;10.57;4.40;;;;;;;6.20;51.30;100128.84;10505676;28;20040;-60
2023/04/26 22:06:48;;;;;;;9.43;4.50;;;;;;;6.06;51.79;100136.28;10486104;28;20130;-61
2023/04/26 22:11:50;;;;;;;9.82;4.38;;;;;;;6.09;51.64;100136.19;10506363;28;20220;-60
2023/04/26 22:16:51;;;;;;;11.02;4.22;;;;;;;6.15;51.74;100146.31;10503743;28;20051;-60
2023/04/26 22:21:53;;;;;;;11.30;4.47;;;;;;;6.14;51.74;100139.44;10506769;28;20117;-60
2023/04/26 22:26:57;;;;;;;11.52;4.47;;;;;;;6.09;51.76;100154.34;10515464;28;20048;-60
2023/04/26 22:31:58;;;;;;;10.00;4.63;;;;;;;5.94;52.12;100149.72;10515565;28;20075;-60
2023/04/26 22:37:00;;;;;;;9.55;4.70;;;;;;;6.00;52.52;100159.88;10514314;28;20052;-60
2023/04/26 22:42:21;;;;;;;11.63;4.93;;;;;;;6.00;52.38;100159.06;10500580;28;20058;-60
2023/04/26 22:47:23;;;;;;;9.05;4.78;;;;;;;6.02;52.53;100165.84;10515543;28;20051;-60
2023/04/26 22:52:24;;;;;;;9.57;4.50;;;;;;;6.00;52.63;100166.84;10514038;28;20046;-60
2023/04/26 22:57:32;;;;;;;10.68;4.40;;;;;;;5.98;52.87;100161.69;10512868;28;20036;-60
2023/04/26 23:02:34;;;;;;;7.82;4.22;;;;;;;5.99;52.88;100166.00;10510708;28;20135;-60
2023/04/26 23:07:37;;;;;;;11.02;5.10;;;;;;;5.94;53.08;100169.66;10511012;28;20063;-60
2023/04/26 23:12:40;;;;;;;10.68;4.90;;;;;;;5.86;53.36;100172.53;10509579;28;20056;-60
2023/04/26 23:17:42;;;;;;;8.75;5.20;;;;;;;5.81;53.52;100169.25;10510142;28;20040;-60
2023/04/26 23:22:44;;;;;;;11.00;4.78;;;;;;;5.69;53.60;100163.66;10511902;28;20139;-60
2023/04/26 23:27:46;;;;;;;8.95;4.30;;;;;;;5.62;53.73;100159.59;10510596;28;20510;-61